Airfield :
LOGIN :

Register | Disclaimer

   EN    FR    IT 

 










Legend :    VFR   Marginal VFR   IFR   Intensive IFR   Very Intensive IFR
Visi :
Ceiling :
>= 8 km
>= 3000ft
5 to 8 km
1000 to 3000 ft
1500m to 5 km
500 to 1000 ft
800 to 1500m
200 to 500 ft
< 800m
< 200 ft
Symbols :   Thunderstorms  Fog  Heavy snow  Heavy precipitations  Wind > 20 kt
SIGMETs :     Misc.  Thunderstorms  Icing  Turbulence  Mountain Waves  Volcanic Ashes







- Airport Elevation : 1649 ft
- IATA code : HHN


EDFH - Frankfurt-Hahn Rhineland-Palatinate

CURRENT METAR :
  • 231320Z 24020G37KT 200V260 9999 SCT012 BKN022 18/17 Q1004

EXPIRED METARs :
  • 231250Z 24025G43KT 9999 SCT019 20/16 Q1005
  • 231220Z 24025G42KT 210V270 9999 SCT014 SCT019 19/16 Q1006
  • 231150Z 24018G37KT 210V280 9999 -RA BKN010 19/17 Q1007
  • 231120Z 24022G35KT 210V270 9999 BKN011 19/17 Q1008
  • 231050Z 25019G35KT 9999 -RA BKN008 18/17 Q1009

TAF TAF EDFH
Valid from the 23 at 12:00 until the 24 at 12:00 UTC


231100Z 2312/2412 26015G35KT 8000 BKN010
TEMPO 2312/2313 26020G45KT 4000 RADZ BKN004
TEMPO 2313/2316 29030G55KT 2000 +TSRA BKN004CB
TEMPO 2316/2320 32020G45KT 4000 +SHRA BKN008CB
BECMG 2317/2321 31015G25KT
TEMPO 2320/2406 BKN004
BECMG 2321/2324 30007KT
BECMG 2406/2409 SCT015
No reported NOTAMs for that airfield.
3 SIGMETs reported for the Langen FIR (EDGG) :
 
Embedded thunderstorms
EDGG SIGMET 3 VALID 231325/231525 EDZF
EDGG LANGEN FIR EMBD TS OBS APRX 50NM WID LINE BTN N4909 E00615 - N4933 E00654 - N5002 E00735 - N5036 E00807 TOP FL350 MOV E INTSF=
Severe turbulence
EDGG SIGMET 2 VALID 231300/231500 EDZF
EDGG LANGEN FIR SEV TURB FCST WI N5051 E00959 - N4905 E00909 - N4900 E00803 - N4907 E00637 - N5006 E00600 - N5032 E00656 - N5045 E00803 - N5051 E00959 SFC/FL060 MOV E INTSF=
Severe turbulence
EDGG SIGMET 1 VALID 231300/231500 EDZF
EDGG LANGEN FIR SEV TURB FCST WI N4905 E00916 - N4748 E00842 - N4728 E00728 - N4805 E00729 - N4835 E00744 - N4850 E00756 - N4858 E00811 - N4905 E00916 SFC/FL100 MOV E INTSF=



MET'MAP, your aeronautical weather chart ! - Copyright ORBIFLY December 2007 - Disclaimer

ORBIFLY MET'MAP TEAM :

Programming & Development : Alexandra Zaïnal
Concept & Development : Baudouin d'Aumeries
Co-Development & Prog : Marc-Olivier Méhu
Technical & hardware support : Manuel Goepfert

Contact : metmap@orbifly.com




SOURCES & CREDITS :

   NOAA